Time;durP1;ratioP1;P1;durP2;ratioP2;P2;SDS_P1;SDS_P2;PMS_P1;PMS_P2;Temp;Humidity;BMP_temperature;BMP_pressure;BME280_temperature;BME280_humidity;BME280_pressure;Samples;Min_cycle;Max_cycle;Signal;HPM_P1;HPM_P2
2023/11/02 00:00:42;;;;;;;2.72;0.77;;;;;;;9.85;78.70;98401.25;10384946;28;20049;-79
2023/11/02 00:06:17;;;;;;;3.65;0.50;;;;;;;9.74;79.33;98393.53;10389910;28;20061;-81
2023/11/02 00:11:51;;;;;;;2.83;0.55;;;;;;;9.72;78.76;98391.00;10393677;28;20667;-79
2023/11/02 00:16:56;;;;;;;2.95;0.50;;;;;;;9.84;77.80;98371.91;10394709;28;20052;-79
2023/11/02 00:22:06;;;;;;;1.08;0.65;;;;;;;9.90;77.07;98361.41;10398425;28;20103;-80
2023/11/02 00:27:11;;;;;;;2.08;0.50;;;;;;;9.75;76.84;98348.81;10401231;28;20467;-79
2023/11/02 00:32:14;;;;;;;4.95;0.60;;;;;;;9.86;75.91;98348.47;10422533;28;20053;-79
2023/11/02 00:37:17;;;;;;;3.95;0.70;;;;;;;9.91;75.51;98341.59;10419497;28;20053;-79
2023/11/02 00:42:23;;;;;;;6.50;0.93;;;;;;;9.94;75.51;98341.25;10398427;28;20049;-80
2023/11/02 00:47:27;;;;;;;1.88;0.60;;;;;;;9.77;76.11;98331.53;10399994;28;20045;-79
2023/11/02 00:52:30;;;;;;;1.98;0.50;;;;;;;9.84;75.62;98307.56;10403115;28;20049;-79
2023/11/02 00:57:40;;;;;;;2.88;0.70;;;;;;;9.96;75.52;98313.44;10384148;28;20060;-79
2023/11/02 01:02:43;;;;;;;2.50;0.65;;;;;;;9.93;75.68;98312.78;10393617;28;20049;-78
2023/11/02 01:07:46;;;;;;;5.50;0.52;;;;;;;9.78;76.71;98303.72;10402167;28;20042;-79
2023/11/02 01:12:51;;;;;;;3.03;0.90;;;;;;;9.84;76.27;98288.78;10391830;28;21150;-79
2023/11/02 01:17:54;;;;;;;2.47;0.65;;;;;;;9.83;76.62;98279.06;10389843;28;20075;-78
2023/11/02 01:23:02;;;;;;;1.52;0.65;;;;;;;9.79;76.52;98281.28;10398612;28;20627;-79
2023/11/02 01:28:06;;;;;;;2.88;0.85;;;;;;;9.81;76.80;98278.41;10401913;28;20065;-78
2023/11/02 01:33:45;;;;;;;6.93;0.73;;;;;;;9.71;77.43;98271.41;10407871;28;20158;-78
2023/11/02 01:38:53;;;;;;;1.40;0.68;;;;;;;9.66;78.02;98254.97;10393110;28;20051;-79
2023/11/02 01:44:10;;;;;;;3.22;0.60;;;;;;;9.60;78.59;98241.41;10390401;28;20067;-78
2023/11/02 01:49:20;;;;;;;4.03;0.68;;;;;;;9.46;79.44;98237.56;10389459;28;20049;-79
2023/11/02 01:54:40;;;;;;;3.10;0.82;;;;;;;9.53;79.66;98233.22;10388471;28;20069;-78
2023/11/02 01:59:51;;;;;;;4.57;0.65;;;;;;;9.59;79.83;98223.66;10391575;28;20164;-79
2023/11/02 02:05:02;;;;;;;4.63;0.80;;;;;;;9.54;79.83;98194.69;10401504;28;20500;-77
2023/11/02 02:10:12;;;;;;;4.38;1.08;;;;;;;9.47;80.79;98193.72;10391772;28;20060;-78
2023/11/02 02:15:24;;;;;;;2.65;1.00;;;;;;;9.47;81.38;98177.63;10393953;28;20059;-80
2023/11/02 02:20:31;;;;;;;2.08;0.90;;;;;;;9.55;80.94;98185.66;10408863;28;20079;-80
2023/11/02 02:25:39;;;;;;;4.03;1.20;;;;;;;9.50;81.13;98166.56;10390509;28;20052;-79
2023/11/02 02:31:13;;;;;;;2.75;0.70;;;;;;;9.47;81.86;98154.34;10404811;28;20052;-79
2023/11/02 02:36:22;;;;;;;4.75;0.70;;;;;;;9.48;81.59;98134.56;10394977;28;20610;-79
2023/11/02 02:41:29;;;;;;;2.22;0.90;;;;;;;9.55;81.12;98115.97;10387884;28;20049;-79
2023/11/02 02:46:33;;;;;;;1.50;0.85;;;;;;;9.61;80.72;98107.25;10434097;28;20051;-80
2023/11/02 02:51:45;;;;;;;2.03;0.93;;;;;;;9.42;82.01;98095.06;10418185;28;20059;-79
2023/11/02 02:56:50;;;;;;;2.10;0.85;;;;;;;9.50;81.73;98068.25;10389137;28;20048;-79
2023/11/02 03:01:57;;;;;;;2.58;1.00;;;;;;;9.53;81.29;98053.66;10402839;28;20055;-79
2023/11/02 03:07:02;;;;;;;4.97;1.13;;;;;;;9.47;81.13;98035.63;10395345;28;20068;-78
2023/11/02 03:12:08;;;;;;;1.75;0.77;;;;;;;9.70;79.87;98016.91;10389748;28;21578;-80
2023/11/02 03:17:16;;;;;;;4.03;1.33;;;;;;;9.66;79.99;98004.88;10387348;28;20230;-79
2023/11/02 03:22:22;;;;;;;0.70;0.60;;;;;;;9.68;79.37;97990.28;10393825;28;20045;-79
2023/11/02 03:27:37;;;;;;;2.17;0.98;;;;;;;9.69;78.57;97961.63;10398381;28;20061;-79
2023/11/02 03:32:50;;;;;;;2.25;0.80;;;;;;;9.77;79.14;97934.78;10399943;28;20049;-80
2023/11/02 03:38:06;;;;;;;2.47;1.00;;;;;;;9.54;80.64;97913.31;10392066;28;20405;-79
2023/11/02 03:43:17;;;;;;;2.15;0.90;;;;;;;9.36;81.69;97880.63;10404703;28;20053;-79
2023/11/02 03:48:38;;;;;;;4.57;1.13;;;;;;;9.31;81.94;97873.13;10398540;28;20065;-79
2023/11/02 03:53:52;;;;;;;3.30;1.20;;;;;;;9.25;82.57;97881.84;10398175;28;20065;-79
2023/11/02 03:59:05;;;;;;;2.63;0.90;;;;;;;9.30;82.71;97860.75;10400789;28;20050;-80
2023/11/02 04:04:16;;;;;;;4.25;1.00;;;;;;;9.26;82.74;97843.34;10397097;28;20052;-79
2023/11/02 04:09:21;;;;;;;4.90;1.20;;;;;;;9.47;81.17;97842.69;10402510;28;20057;-80
2023/11/02 04:14:26;;;;;;;1.00;0.80;;;;;;;9.40;81.60;97847.09;10395394;28;20045;-79
2023/11/02 04:19:28;;;;;;;2.75;1.40;;;;;;;9.56;81.16;97828.22;10402682;28;20463;-79
2023/11/02 04:24:33;;;;;;;3.95;1.50;;;;;;;9.53;81.54;97809.81;10400267;28;20645;-79
2023/11/02 04:29:36;;;;;;;2.55;1.23;;;;;;;9.31;82.81;97794.59;10406196;28;20055;-79
2023/11/02 04:34:39;;;;;;;3.65;1.10;;;;;;;9.52;81.60;97781.38;10398972;28;20061;-80
2023/11/02 04:39:45;;;;;;;2.25;1.00;;;;;;;9.77;79.97;97781.16;10398082;28;20053;-80
2023/11/02 04:44:48;;;;;;;4.30;0.85;;;;;;;9.86;79.70;97755.94;10390102;28;20056;-80
2023/11/02 04:49:51;;;;;;;3.08;1.00;;;;;;;9.93;79.65;97754.19;10394191;28;20155;-79
2023/11/02 04:54:55;;;;;;;3.10;0.70;;;;;;;10.11;78.86;97738.56;10403608;28;20402;-79
2023/11/02 05:00:00;;;;;;;4.18;0.90;;;;;;;10.07;78.90;97739.97;10432514;28;20045;-79
2023/11/02 05:05:03;;;;;;;3.45;0.70;;;;;;;10.22;77.99;97714.97;10403464;28;21519;-80
2023/11/02 05:10:09;;;;;;;2.03;0.90;;;;;;;10.08;78.86;97698.69;10396927;28;20049;-78
2023/11/02 05:15:12;;;;;;;1.05;0.77;;;;;;;10.05;79.39;97684.84;10408101;28;20056;-79
2023/11/02 05:20:15;;;;;;;2.45;1.20;;;;;;;10.15;79.19;97682.72;10394161;28;20057;-80
2023/11/02 05:25:19;;;;;;;2.72;0.82;;;;;;;9.89;79.27;97659.88;10389655;28;20057;-79
2023/11/02 05:30:22;;;;;;;3.92;1.08;;;;;;;10.21;77.56;97663.19;10404956;28;20198;-80
2023/11/02 05:35:25;;;;;;;3.33;0.68;;;;;;;10.08;77.31;97618.25;10407204;28;20582;-79
2023/11/02 05:40:29;;;;;;;2.20;0.90;;;;;;;10.09;76.99;97584.22;10398175;28;20049;-80
2023/11/02 05:45:32;;;;;;;6.00;0.90;;;;;;;10.45;75.17;97554.69;10403181;28;20065;-79
2023/11/02 05:50:36;;;;;;;5.95;0.75;;;;;;;10.44;74.58;97534.22;10402952;28;20175;-79
2023/11/02 05:55:42;;;;;;;4.13;1.48;;;;;;;10.27;74.79;97514.06;10396858;28;21345;-79
2023/11/02 06:00:46;;;;;;;3.80;0.60;;;;;;;10.22;74.59;97433.31;10400748;28;20053;-79
2023/11/02 06:05:49;;;;;;;4.35;0.85;;;;;;;10.07;75.29;97438.78;10396490;28;20057;-80
2023/11/02 06:10:53;;;;;;;1.63;1.00;;;;;;;10.05;76.76;97377.28;10399746;28;20041;-79
2023/11/02 06:15:56;;;;;;;4.40;1.02;;;;;;;9.85;77.55;97357.50;10399762;28;20518;-80
2023/11/02 06:20:58;;;;;;;2.80;0.73;;;;;;;9.89;76.47;97279.19;10389113;28;21248;-78
2023/11/02 06:26:03;;;;;;;2.33;0.77;;;;;;;9.85;76.48;97360.19;10393973;28;20187;-79
2023/11/02 06:31:06;;;;;;;5.40;1.15;;;;;;;10.29;74.59;97418.94;10399314;28;20673;-79
2023/11/02 06:36:09;;;;;;;1.40;0.57;;;;;;;10.10;74.70;97406.22;10414391;28;20049;-80
2023/11/02 06:41:14;;;;;;;3.38;0.70;;;;;;;10.21;73.50;97354.72;10394448;28;20053;-79
2023/11/02 06:46:17;;;;;;;5.32;0.95;;;;;;;10.07;72.35;97334.19;10402165;28;21629;-78
2023/11/02 06:51:21;;;;;;;2.00;0.55;;;;;;;10.41;68.84;97348.66;10388959;28;20064;-79
2023/11/02 06:56:26;;;;;;;2.05;0.50;;;;;;;10.43;66.65;97277.66;10404178;28;20131;-79
2023/11/02 07:01:29;;;;;;;2.88;0.75;;;;;;;10.75;66.76;97210.88;10388831;28;20053;-79
2023/11/02 07:06:32;;;;;;;2.95;0.57;;;;;;;10.26;67.72;97129.66;10385524;28;20091;-79
2023/11/02 07:11:37;;;;;;;2.47;0.40;;;;;;;10.24;67.43;97161.22;10419351;28;20040;-79
2023/11/02 07:16:39;;;;;;;1.23;0.52;;;;;;;10.50;66.67;97114.84;10444835;28;20047;-79
2023/11/02 07:21:42;;;;;;;7.30;0.98;;;;;;;10.41;66.92;97117.94;10430004;28;20052;-79
2023/11/02 07:26:47;;;;;;;2.53;0.68;;;;;;;10.76;66.08;97247.47;10392827;28;20491;-79
2023/11/02 07:31:49;;;;;;;3.03;0.50;;;;;;;10.75;65.14;97299.47;10407695;28;20045;-79
2023/11/02 07:36:54;;;;;;;0.75;0.30;;;;;;;10.96;64.13;97299.34;10393078;28;20048;-79
2023/11/02 07:41:58;;;;;;;3.97;0.70;;;;;;;11.12;64.35;97249.84;10393732;28;20053;-79
2023/11/02 07:47:02;;;;;;;1.77;0.70;;;;;;;11.06;65.06;97250.63;10386338;28;20045;-79
2023/11/02 07:52:05;;;;;;;1.00;0.40;;;;;;;10.66;67.00;97303.38;10391904;28;20056;-78
2023/11/02 07:57:10;;;;;;;2.83;0.60;;;;;;;10.64;67.39;97278.56;10391896;28;21284;-78
2023/11/02 08:02:13;;;;;;;0.93;0.43;;;;;;;10.86;67.10;97265.84;10384001;28;20057;-78
2023/11/02 08:07:16;;;;;;;1.23;0.50;;;;;;;10.70;68.34;97203.47;10387456;28;20049;-78
2023/11/02 08:12:21;;;;;;;1.13;0.50;;;;;;;10.74;68.72;97211.94;10398857;28;20048;-77
2023/11/02 08:17:27;;;;;;;1.55;0.55;;;;;;;10.71;69.48;97242.69;10399124;28;20574;-79
2023/11/02 08:22:30;;;;;;;0.95;0.30;;;;;;;10.65;69.96;97250.72;10394922;28;21264;-79
2023/11/02 08:27:35;;;;;;;1.15;0.40;;;;;;;11.10;69.11;97221.50;10405061;28;20052;-79
2023/11/02 08:32:38;;;;;;;1.17;0.43;;;;;;;10.88;70.65;97221.66;10396429;28;20434;-79
2023/11/02 08:37:41;;;;;;;2.42;0.28;;;;;;;10.83;71.18;97208.88;10400522;28;20045;-79
2023/11/02 08:42:46;;;;;;;1.20;0.40;;;;;;;10.78;71.54;97219.38;10399189;28;20057;-79
2023/11/02 08:47:49;;;;;;;2.75;0.80;;;;;;;10.55;73.37;97195.56;10415542;28;20068;-79
2023/11/02 08:52:52;;;;;;;0.77;0.40;;;;;;;10.74;73.18;97209.25;10409189;28;20064;-79
2023/11/02 08:57:56;;;;;;;1.60;0.50;;;;;;;10.48;80.32;97201.97;10395675;28;20464;-80
2023/11/02 09:02:59;;;;;;;1.15;0.65;;;;;;;10.20;83.53;97169.84;10405956;28;20045;-79
2023/11/02 09:08:03;;;;;;;0.22;0.22;;;;;;;10.54;83.68;97169.75;10399126;28;20049;-78
2023/11/02 09:13:07;;;;;;;0.43;0.30;;;;;;;10.84;82.10;97162.19;10399311;28;20536;-77
2023/11/02 09:18:10;;;;;;;1.35;0.35;;;;;;;10.79;81.33;97158.47;10404258;28;20640;-79
2023/11/02 09:23:13;;;;;;;3.03;0.28;;;;;;;11.12;79.00;97155.00;10419485;28;20103;-78
2023/11/02 09:28:18;;;;;;;1.85;0.38;;;;;;;11.26;78.43;97138.69;10411728;28;21125;-78
2023/11/02 09:33:21;;;;;;;3.58;0.38;;;;;;;11.10;78.00;97120.25;10401646;28;20064;-78
2023/11/02 09:38:25;;;;;;;2.35;0.38;;;;;;;11.32;76.27;97109.34;10395594;28;20069;-80
2023/11/02 09:43:29;;;;;;;0.82;0.30;;;;;;;11.60;74.87;97092.94;10398264;28;20125;-79
2023/11/02 09:48:32;;;;;;;1.20;0.30;;;;;;;11.73;72.79;97104.47;10415661;28;20060;-78
2023/11/02 09:53:35;;;;;;;2.00;0.32;;;;;;;11.67;72.41;97105.34;10400020;28;20474;-78
2023/11/02 09:58:40;;;;;;;0.20;0.10;;;;;;;11.82;71.21;97105.09;10394030;28;20122;-79
2023/11/02 10:03:43;;;;;;;0.95;0.30;;;;;;;11.70;71.92;97096.84;10393568;28;20068;-79
2023/11/02 10:08:46;;;;;;;0.52;0.15;;;;;;;11.74;71.10;97073.06;10389751;28;20505;-79
2023/11/02 10:13:50;;;;;;;3.40;0.20;;;;;;;11.91;70.49;97081.47;10394756;28;20060;-78
2023/11/02 10:18:54;;;;;;;3.45;0.40;;;;;;;12.15;70.56;97067.31;10411169;28;20040;-77
2023/11/02 10:23:58;;;;;;;0.35;0.20;;;;;;;11.86;70.58;97089.34;10439632;28;20054;-78
2023/11/02 10:29:05;;;;;;;2.03;0.20;;;;;;;12.57;68.97;97039.94;10400353;28;20056;-77
2023/11/02 10:34:09;;;;;;;0.73;0.30;;;;;;;12.08;69.58;97055.75;10415689;28;20041;-78
2023/11/02 10:39:12;;;;;;;3.35;0.30;;;;;;;11.63;72.59;97041.47;10404664;28;20048;-79
2023/11/02 10:44:17;;;;;;;9.38;0.50;;;;;;;12.08;73.63;97018.09;10394629;28;20056;-79
2023/11/02 10:49:21;;;;;;;1.05;0.30;;;;;;;11.95;72.67;97000.16;10399026;28;20055;-79
2023/11/02 10:54:36;;;;;;;1.10;0.40;;;;;;;12.27;70.72;96991.28;10398125;28;20041;-79
2023/11/02 10:59:41;;;;;;;0.38;0.32;;;;;;;12.13;70.51;96994.06;10399354;28;20128;-79
2023/11/02 11:04:46;;;;;;;0.25;0.10;;;;;;;11.91;70.43;97006.19;10399417;28;20049;-79
2023/11/02 11:09:51;;;;;;;0.93;0.30;;;;;;;12.79;67.27;96981.16;10389619;28;20049;-79
2023/11/02 11:14:57;;;;;;;1.13;0.30;;;;;;;12.29;67.66;96991.94;10390179;28;20080;-79
2023/11/02 11:20:00;;;;;;;0.82;0.52;;;;;;;12.48;67.98;96982.88;10407254;28;20053;-79
2023/11/02 11:25:05;;;;;;;14.23;0.60;;;;;;;12.30;68.32;96967.47;10408814;28;20774;-78
2023/11/02 11:30:37;;;;;;;2.38;0.40;;;;;;;12.17;68.18;96960.28;10402146;28;20072;-78
2023/11/02 11:36:24;;;;;;;1.83;0.40;;;;;;;12.75;66.58;96979.94;10421579;28;20053;-79
2023/11/02 11:41:44;;;;;;;3.20;0.43;;;;;;;12.58;67.00;96956.25;10396347;28;21289;-78
2023/11/02 11:46:52;;;;;;;4.07;1.20;;;;;;;12.18;68.52;96936.91;10394149;28;20045;-77
2023/11/02 11:51:57;;;;;;;3.15;0.50;;;;;;;12.27;68.07;96965.19;10398308;28;20062;-78
2023/11/02 11:57:00;;;;;;;2.25;0.50;;;;;;;12.34;67.70;96951.72;10391336;28;21538;-78
2023/11/02 12:07:46;;;;;;;2.50;0.30;;;;;;;12.57;66.80;96948.44;10457861;27;20934;-78
2023/11/02 12:12:49;;;;;;;1.33;0.45;;;;;;;12.34;67.60;96975.91;10421191;28;20064;-78
2023/11/02 12:17:53;;;;;;;0.98;0.20;;;;;;;12.48;66.69;96984.72;10494790;28;20438;-78
2023/11/02 12:22:59;;;;;;;1.35;0.30;;;;;;;12.50;66.66;96951.16;10507042;28;20040;-78
2023/11/02 12:28:02;;;;;;;0.65;0.20;;;;;;;12.19;67.72;96925.09;10517164;28;20152;-78
2023/11/02 12:33:05;;;;;;;0.30;0.30;;;;;;;12.39;67.13;96882.72;10506928;28;20059;-80
2023/11/02 12:38:09;;;;;;;1.05;0.28;;;;;;;12.22;68.70;96903.13;10497411;28;20056;-80
2023/11/02 12:43:20;;;;;;;3.50;0.70;;;;;;;12.19;68.50;96900.88;10499785;28;20399;-80
2023/11/02 12:48:29;;;;;;;0.60;0.55;;;;;;;12.27;67.99;96894.41;10505333;28;20048;-80
2023/11/02 12:53:35;;;;;;;0.80;0.57;;;;;;;12.36;67.42;96883.16;10502243;28;20051;-79
2023/11/02 12:58:39;;;;;;;2.60;1.50;;;;;;;12.33;67.31;96904.31;10496048;28;20530;-80
2023/11/02 13:03:58;;;;;;;0.30;0.28;;;;;;;12.45;67.64;96896.34;10505591;28;20747;-80
2023/11/02 13:09:11;;;;;;;0.45;0.40;;;;;;;12.27;68.38;96880.97;10489973;28;20049;-80
2023/11/02 13:14:16;;;;;;;;;;;;;;;12.41;68.09;96882.53;10500109;28;20052;-79
2023/11/02 13:19:23;;;;;;;0.75;0.25;;;;;;;12.48;67.42;96882.44;10462546;28;20345;-79
2023/11/02 13:24:29;;;;;;;1.95;0.40;;;;;;;12.44;67.22;96874.00;10460275;28;20083;-79
2023/11/02 13:29:33;;;;;;;2.60;0.93;;;;;;;12.27;67.54;96875.59;10498048;28;20079;-80
2023/11/02 13:34:35;;;;;;;2.97;0.50;;;;;;;12.57;66.78;96873.88;10475949;28;20739;-78
2023/11/02 13:39:40;;;;;;;0.65;0.52;;;;;;;12.59;66.62;96868.28;10471319;28;20047;-79
2023/11/02 13:44:44;;;;;;;1.67;0.65;;;;;;;12.40;67.70;96878.19;10475193;28;20033;-79
2023/11/02 13:49:47;;;;;;;0.80;0.38;;;;;;;12.24;68.12;96851.81;10492845;28;20048;-79
2023/11/02 13:54:51;;;;;;;1.67;0.30;;;;;;;12.28;68.16;96826.09;10471792;28;20139;-78
2023/11/02 13:59:56;;;;;;;3.80;0.40;;;;;;;12.65;65.48;96847.72;10475178;28;20050;-78
2023/11/02 14:05:00;;;;;;;1.00;0.43;;;;;;;13.26;63.42;96844.06;10462303;28;20044;-78
2023/11/02 14:10:09;;;;;;;2.40;0.60;;;;;;;12.80;64.12;96832.81;10467398;28;20060;-77
2023/11/02 14:15:12;;;;;;;2.13;0.47;;;;;;;12.42;64.66;96841.09;10468165;28;20417;-79
2023/11/02 14:20:15;;;;;;;4.93;0.65;;;;;;;12.50;65.23;96848.88;10468108;28;20056;-79
2023/11/02 14:25:19;;;;;;;3.60;0.40;;;;;;;12.68;63.12;96860.72;10476443;28;20052;-79
2023/11/02 14:30:24;;;;;;;1.85;0.50;;;;;;;13.24;60.67;96854.25;10477183;28;21215;-79
2023/11/02 14:35:27;;;;;;;0.98;0.75;;;;;;;14.05;56.87;96873.69;10469620;28;20530;-79
2023/11/02 14:40:31;;;;;;;0.35;0.20;;;;;;;13.24;57.78;96865.84;10472619;28;20529;-77
2023/11/02 14:45:34;;;;;;;5.43;0.80;;;;;;;14.01;56.90;96838.22;10469862;28;20048;-78
2023/11/02 14:50:37;;;;;;;3.08;0.57;;;;;;;13.54;56.17;96827.34;10475314;28;20040;-79
2023/11/02 14:55:41;;;;;;;3.38;1.00;;;;;;;14.16;55.29;96814.31;10481511;28;20071;-78
2023/11/02 15:00:45;;;;;;;6.05;1.27;;;;;;;13.78;56.69;96822.03;10476899;28;20051;-78
2023/11/02 15:05:49;;;;;;;3.85;1.08;;;;;;;13.20;57.57;96826.94;10462360;28;20047;-76
2023/11/02 15:10:53;;;;;;;5.97;0.98;;;;;;;13.10;57.72;96820.47;10449184;28;20048;-77
2023/11/02 15:15:56;;;;;;;1.70;0.70;;;;;;;13.39;56.44;96827.75;10458310;28;20040;-78
2023/11/02 15:20:59;;;;;;;3.20;1.45;;;;;;;13.17;57.15;96827.41;10456053;28;20206;-77
2023/11/02 15:26:04;;;;;;;4.97;0.70;;;;;;;12.58;57.87;96820.84;10460057;28;20059;-77
2023/11/02 15:31:07;;;;;;;4.68;0.90;;;;;;;12.93;57.04;96820.25;10459370;28;20058;-76
2023/11/02 15:36:11;;;;;;;3.45;0.73;;;;;;;12.74;57.51;96814.88;10444852;28;20170;-79
2023/11/02 15:41:24;;;;;;;3.80;0.85;;;;;;;12.29;58.56;96836.69;10445217;28;20055;-78
2023/11/02 15:46:27;;;;;;;3.78;1.00;;;;;;;12.36;58.04;96842.00;10443291;28;20056;-79
2023/11/02 15:51:30;;;;;;;4.57;0.95;;;;;;;12.27;58.63;96825.28;10434322;28;20079;-76
2023/11/02 15:56:35;;;;;;;7.78;0.88;;;;;;;12.28;58.45;96837.72;10453862;28;20040;-78
2023/11/02 16:01:38;;;;;;;2.08;0.70;;;;;;;12.15;59.07;96844.03;10455742;28;20067;-80
2023/11/02 16:06:42;;;;;;;1.05;0.47;;;;;;;12.10;59.10;96853.78;10462515;28;20055;-80
2023/11/02 16:11:47;;;;;;;5.03;0.85;;;;;;;12.00;59.80;96869.59;10439924;28;21162;-78
2023/11/02 16:16:51;;;;;;;4.20;2.03;;;;;;;12.17;58.88;96862.63;10445723;28;20053;-78
2023/11/02 16:21:55;;;;;;;8.10;1.13;;;;;;;12.09;59.00;96890.59;10435224;28;20048;-77
2023/11/02 16:27:00;;;;;;;3.78;0.90;;;;;;;11.83;60.05;96891.63;10455011;28;20048;-77
2023/11/02 16:32:03;;;;;;;6.63;1.25;;;;;;;11.96;59.37;96882.66;10463928;28;20045;-77
2023/11/02 16:37:06;;;;;;;10.13;1.40;;;;;;;11.99;59.44;96868.78;10453794;28;20127;-77
2023/11/02 16:42:11;;;;;;;4.35;0.98;;;;;;;12.07;59.14;96867.69;10447866;28;20048;-79
2023/11/02 16:47:15;;;;;;;2.63;0.70;;;;;;;12.03;59.26;96861.91;10435751;28;20672;-78
2023/11/02 16:52:18;;;;;;;3.65;1.10;;;;;;;11.84;59.69;96857.50;10444596;28;20053;-80
2023/11/02 16:57:22;;;;;;;3.50;0.88;;;;;;;11.88;59.34;96869.47;10445716;28;20633;-78
2023/11/02 17:02:25;;;;;;;6.20;1.25;;;;;;;11.92;59.48;96874.19;10442419;28;20049;-78
2023/11/02 17:07:29;;;;;;;5.25;1.48;;;;;;;11.88;59.86;96877.56;10443952;28;20076;-78
2023/11/02 17:12:33;;;;;;;7.80;1.38;;;;;;;11.83;60.01;96898.88;10447734;28;20052;-81
2023/11/02 17:17:36;;;;;;;4.68;1.20;;;;;;;11.82;60.18;96892.69;10445236;28;20610;-79
2023/11/02 17:22:40;;;;;;;5.93;1.45;;;;;;;11.85;60.09;96908.38;10448690;28;20059;-81
2023/11/02 17:27:44;;;;;;;6.20;1.10;;;;;;;11.69;60.94;96915.09;10461180;28;20520;-80
2023/11/02 17:32:47;;;;;;;4.20;1.00;;;;;;;11.70;60.58;96908.66;10452259;28;20122;-78
2023/11/02 17:37:50;;;;;;;8.73;1.63;;;;;;;11.65;61.59;96927.31;10437294;28;21793;-80
2023/11/02 17:42:56;;;;;;;6.63;1.73;;;;;;;11.32;62.63;96929.34;10446899;28;20055;-81
2023/11/02 17:47:59;;;;;;;5.82;0.90;;;;;;;11.41;62.47;96936.94;10452784;28;20048;-77
2023/11/02 17:53:02;;;;;;;2.45;0.80;;;;;;;11.40;61.88;96937.97;10436504;28;20071;-80
2023/11/02 17:58:07;;;;;;;6.05;1.63;;;;;;;11.48;61.76;96932.34;10445108;28;20045;-80
2023/11/02 18:03:11;;;;;;;9.07;1.40;;;;;;;11.47;62.06;96937.97;10446191;28;20044;-79
2023/11/02 18:08:14;;;;;;;5.93;1.23;;;;;;;11.20;62.51;96931.88;10449588;28;20052;-80
2023/11/02 18:13:18;;;;;;;6.63;1.38;;;;;;;11.17;62.73;96921.56;10452558;28;20322;-80
2023/11/02 18:18:21;;;;;;;9.43;1.58;;;;;;;11.11;62.63;96923.19;10444091;28;20063;-80
2023/11/02 18:23:24;;;;;;;4.60;0.93;;;;;;;11.10;62.09;96909.97;10446421;28;20188;-81
2023/11/02 18:28:29;;;;;;;6.25;1.15;;;;;;;11.09;61.43;96902.97;10436336;28;20044;-82
2023/11/02 18:33:32;;;;;;;4.05;0.80;;;;;;;11.12;60.39;96913.28;10443623;28;20044;-80
2023/11/02 18:38:35;;;;;;;6.30;1.40;;;;;;;11.07;60.36;96919.25;10455614;28;20080;-80
2023/11/02 18:43:40;;;;;;;6.78;1.02;;;;;;;10.98;59.84;96925.91;10453173;28;20045;-79
2023/11/02 18:48:43;;;;;;;8.05;1.58;;;;;;;11.04;59.98;96931.25;10461514;28;20045;-82
2023/11/02 18:53:47;;;;;;;7.97;1.42;;;;;;;11.09;59.28;96944.06;10443904;28;20041;-81
2023/11/02 18:58:51;;;;;;;4.53;1.35;;;;;;;11.09;59.06;96943.25;10450805;28;20734;-80
2023/11/02 19:03:54;;;;;;;15.00;2.42;;;;;;;10.99;58.84;96941.81;10458847;28;20045;-80
2023/11/02 19:08:57;;;;;;;7.28;1.10;;;;;;;11.12;58.05;96951.72;10456715;28;20040;-81
2023/11/02 19:14:03;;;;;;;8.43;1.10;;;;;;;11.19;58.06;96925.69;10472764;28;20059;-81
2023/11/02 19:19:06;;;;;;;5.50;1.27;;;;;;;10.91;58.68;96928.59;10449718;28;20459;-76
2023/11/02 19:24:11;;;;;;;5.40;1.10;;;;;;;10.73;58.58;96929.28;10451064;28;20100;-81
2023/11/02 19:29:15;;;;;;;5.78;1.00;;;;;;;10.95;58.07;96927.16;10450162;28;20049;-81
2023/11/02 19:34:19;;;;;;;9.10;1.30;;;;;;;10.78;57.97;96929.47;10450416;28;20055;-78
2023/11/02 19:39:22;;;;;;;5.18;1.23;;;;;;;11.21;56.67;96926.25;10459811;28;20159;-79
2023/11/02 19:44:26;;;;;;;5.22;1.13;;;;;;;10.81;57.70;96920.19;10449018;28;20048;-81
2023/11/02 19:49:30;;;;;;;8.30;1.35;;;;;;;10.83;57.21;96927.00;10451143;28;20055;-79
2023/11/02 19:54:33;;;;;;;7.68;1.67;;;;;;;10.85;57.65;96916.03;10457045;28;20520;-80
2023/11/02 19:59:38;;;;;;;12.23;1.45;;;;;;;10.94;57.32;96914.78;10460136;28;20250;-81
2023/11/02 20:04:43;;;;;;;5.72;1.38;;;;;;;10.86;57.80;96909.63;10433186;28;20689;-81
2023/11/02 20:09:46;;;;;;;5.57;1.20;;;;;;;10.77;58.05;96925.13;10437361;28;20048;-80
2023/11/02 20:14:51;;;;;;;12.15;1.20;;;;;;;10.65;58.75;96942.91;10450936;28;20048;-81
2023/11/02 20:19:53;;;;;;;7.38;1.20;;;;;;;10.79;58.28;96952.59;10460994;28;20041;-76
2023/11/02 20:24:57;;;;;;;6.15;1.75;;;;;;;11.06;57.78;96956.03;10459907;28;20045;-80
2023/11/02 20:30:01;;;;;;;6.63;1.15;;;;;;;10.71;59.01;96947.44;10461287;28;20048;-78
2023/11/02 20:35:05;;;;;;;4.95;1.45;;;;;;;10.94;58.34;96962.25;10465467;28;20048;-79
2023/11/02 20:40:09;;;;;;;5.55;1.42;;;;;;;10.98;58.56;96958.13;10461337;28;20566;-79
2023/11/02 20:45:14;;;;;;;6.15;1.48;;;;;;;10.99;58.27;96971.34;10463318;28;20052;-78
2023/11/02 20:50:18;;;;;;;7.80;1.25;;;;;;;10.70;58.63;96959.22;10459342;28;20036;-79
2023/11/02 20:55:22;;;;;;;8.85;1.75;;;;;;;10.82;58.59;96948.66;10464966;28;20083;-80
2023/11/02 21:00:26;;;;;;;8.05;1.88;;;;;;;10.78;58.50;96932.16;10456153;28;20151;-80
2023/11/02 21:05:32;;;;;;;5.72;1.55;;;;;;;10.66;58.66;96939.19;10458446;28;20070;-80
2023/11/02 21:10:35;;;;;;;6.57;1.02;;;;;;;10.70;58.46;96924.31;10454449;28;20048;-80
2023/11/02 21:15:40;;;;;;;9.57;1.10;;;;;;;10.94;57.35;96913.94;10453951;28;20052;-79
2023/11/02 21:20:43;;;;;;;7.00;1.45;;;;;;;11.00;57.45;96915.78;10465717;28;20130;-78
2023/11/02 21:25:47;;;;;;;7.93;1.48;;;;;;;11.15;57.38;96929.00;10466889;28;20052;-78
2023/11/02 21:30:51;;;;;;;4.75;1.40;;;;;;;10.95;57.34;96932.53;10453113;28;20040;-79
2023/11/02 21:35:54;;;;;;;5.60;1.70;;;;;;;10.98;57.78;96937.47;10460818;28;20064;-78
2023/11/02 21:40:57;;;;;;;13.98;1.38;;;;;;;10.92;58.20;96932.13;10452817;28;20049;-81
2023/11/02 21:46:01;;;;;;;5.78;1.42;;;;;;;10.89;58.46;96932.53;10453149;28;20064;-78
2023/11/02 21:51:05;;;;;;;10.70;1.15;;;;;;;10.80;58.32;96924.69;10476834;28;20503;-80
2023/11/02 21:56:08;;;;;;;4.85;1.35;;;;;;;10.91;57.64;96914.34;10464013;28;20199;-79
2023/11/02 22:01:15;;;;;;;8.30;1.23;;;;;;;10.78;58.38;96905.31;10458318;28;20045;-78
2023/11/02 22:06:18;;;;;;;3.83;0.77;;;;;;;10.46;58.58;96896.28;10464321;28;20083;-80
2023/11/02 22:11:21;;;;;;;9.10;2.08;;;;;;;10.50;58.71;96885.94;10468837;28;20669;-79
2023/11/02 22:16:25;;;;;;;8.23;1.17;;;;;;;10.19;58.72;96894.66;10467623;28;21125;-82
2023/11/02 22:21:28;;;;;;;11.93;1.55;;;;;;;10.34;58.09;96888.06;10467278;28;20060;-81
2023/11/02 22:26:31;;;;;;;7.60;1.58;;;;;;;10.64;56.95;96901.03;10465569;28;20052;-79
2023/11/02 22:31:36;;;;;;;5.15;1.05;;;;;;;10.28;58.05;96913.00;10477653;28;20105;-79
2023/11/02 22:36:42;;;;;;;5.45;1.15;;;;;;;10.58;57.22;96912.56;10482943;28;20047;-78
2023/11/02 22:41:45;;;;;;;6.13;1.25;;;;;;;10.24;58.12;96922.50;10486117;28;20073;-78
2023/11/02 22:46:50;;;;;;;4.20;1.05;;;;;;;10.34;57.96;96932.84;10479973;28;20047;-78
2023/11/02 22:51:53;;;;;;;3.60;1.33;;;;;;;10.30;58.02;96923.53;10479205;28;20028;-79
2023/11/02 22:56:56;;;;;;;8.07;1.20;;;;;;;10.31;58.46;96914.44;10489245;28;20117;-80
2023/11/02 23:02:01;;;;;;;8.57;1.20;;;;;;;10.09;58.56;96924.53;10470291;28;20247;-78
2023/11/02 23:07:05;;;;;;;9.77;1.70;;;;;;;9.97;58.94;96915.47;10480898;28;20075;-80
2023/11/02 23:12:08;;;;;;;4.28;1.33;;;;;;;10.09;58.30;96936.13;10448086;28;21168;-79
2023/11/02 23:17:14;;;;;;;8.65;2.22;;;;;;;10.04;58.40;96927.88;10453975;28;20060;-80
2023/11/02 23:22:17;;;;;;;6.53;1.40;;;;;;;9.88;58.46;96952.38;10459361;28;20102;-79
2023/11/02 23:27:21;;;;;;;8.07;1.10;;;;;;;9.80;58.34;96950.69;10462429;28;20048;-80
2023/11/02 23:32:25;;;;;;;8.93;1.17;;;;;;;10.10;58.08;96945.81;10470946;28;20048;-80
2023/11/02 23:37:28;;;;;;;5.30;0.93;;;;;;;9.92;58.70;96956.28;10452138;28;21218;-78
2023/11/02 23:42:31;;;;;;;5.93;1.15;;;;;;;9.89;58.62;96933.41;10456893;28;20055;-79
2023/11/02 23:47:35;;;;;;;3.58;1.00;;;;;;;9.26;59.94;96933.59;10467340;28;20045;-80